VOI1780 MMGL-KMCO
Flight info
| Callsign | VOI1780 |
|---|---|
| Flight time | N/A |
| Altitude | 35000 |
| Route | FEISE1B FEISE J25 CVM DCT EBDUB DCT CLONN DCT LLACK DCT HRVCJ DCT TRESR DCT DTSRH DCT CHRGE PRICY5 |
| Aircraft | A320/M-SDE3FGHIRWY/LB1 |
Departure
| Time | 2026-05-07 18:08 |
|---|---|
| Airport | Guadalajara International Airport (MMGL) |
Arrival
| Time | N/A |
|---|---|
| Airport | Orlando International Airport (KMCO) |
| Time | Latitude | Longitude | Altitude | Speed | Heading |
|---|---|---|---|---|---|
| 2026-05-07 17:46 | 20.52432 | -103.30071 | 5029 ft | 0 kts | 19° |
| 2026-05-07 17:58 | 20.52416 | -103.30077 | 5026 ft | 4 kts | 24° |
| 2026-05-07 17:58 | 20.52392 | -103.30091 | 5025 ft | 4 kts | 43° |
| 2026-05-07 17:58 | 20.52380 | -103.30111 | 5025 ft | 4 kts | 95° |
| 2026-05-07 17:58 | 20.52380 | -103.30118 | 5026 ft | 0 kts | 108° |
| 2026-05-07 18:01 | 20.52379 | -103.30113 | 5029 ft | 1 kts | 108° |
| 2026-05-07 18:02 | 20.52373 | -103.30094 | 5027 ft | 2 kts | 108° |
| 2026-05-07 18:02 | 20.52367 | -103.30075 | 5035 ft | 4 kts | 108° |
| 2026-05-07 18:02 | 20.52355 | -103.30042 | 5029 ft | 6 kts | 118° |
| 2026-05-07 18:03 | 20.52315 | -103.30028 | 5029 ft | 7 kts | 182° |
| 2026-05-07 18:03 | 20.52258 | -103.30045 | 5029 ft | 10 kts | 198° |
| 2026-05-07 18:03 | 20.52188 | -103.30056 | 5028 ft | 11 kts | 153° |
| 2026-05-07 18:03 | 20.52146 | -103.29978 | 5028 ft | 13 kts | 114° |
| 2026-05-07 18:04 | 20.52106 | -103.29884 | 5029 ft | 15 kts | 114° |
| 2026-05-07 18:04 | 20.52063 | -103.29780 | 5029 ft | 16 kts | 114° |
| 2026-05-07 18:04 | 20.52015 | -103.29669 | 5029 ft | 17 kts | 115° |
| 2026-05-07 18:04 | 20.51965 | -103.29558 | 5029 ft | 15 kts | 121° |
| 2026-05-07 18:05 | 20.51901 | -103.29462 | 5030 ft | 17 kts | 127° |
| 2026-05-07 18:05 | 20.51827 | -103.29358 | 5029 ft | 19 kts | 127° |
| 2026-05-07 18:05 | 20.51757 | -103.29260 | 5028 ft | 13 kts | 127° |
| 2026-05-07 18:05 | 20.51696 | -103.29181 | 5029 ft | 15 kts | 140° |
| 2026-05-07 18:06 | 20.51597 | -103.29186 | 5029 ft | 15 kts | 203° |
| 2026-05-07 18:06 | 20.51500 | -103.29231 | 5028 ft | 15 kts | 204° |
| 2026-05-07 18:06 | 20.51426 | -103.29293 | 5026 ft | 11 kts | 260° |
| 2026-05-07 18:06 | 20.51450 | -103.29371 | 5028 ft | 11 kts | 294° |
| 2026-05-07 18:07 | 20.51516 | -103.29528 | 5028 ft | 51 kts | 294° |
| 2026-05-07 18:07 | 20.51760 | -103.30112 | 5027 ft | 118 kts | 294° |
| 2026-05-07 18:07 | 20.52171 | -103.31087 | 5029 ft | 168 kts | 293° |
| 2026-05-07 18:07 | 20.52628 | -103.32303 | 5548 ft | 180 kts | 292° |
| 2026-05-07 18:08 | 20.53134 | -103.33533 | 6200 ft | 182 kts | 294° |
| 2026-05-07 18:08 | 20.53661 | -103.34762 | 6826 ft | 182 kts | 294° |
| 2026-05-07 18:08 | 20.54203 | -103.36019 | 7041 ft | 194 kts | 294° |
| 2026-05-07 18:08 | 20.54787 | -103.37380 | 7172 ft | 210 kts | 294° |
| 2026-05-07 18:09 | 20.55413 | -103.38851 | 7292 ft | 226 kts | 294° |
| 2026-05-07 18:09 | 20.56086 | -103.40441 | 7405 ft | 245 kts | 294° |
| 2026-05-07 18:09 | 20.56797 | -103.42128 | 7835 ft | 251 kts | 293° |
| 2026-05-07 18:09 | 20.57517 | -103.43842 | 8398 ft | 254 kts | 293° |
| 2026-05-07 18:10 | 20.58232 | -103.45543 | 9016 ft | 256 kts | 293° |
| 2026-05-07 18:10 | 20.58998 | -103.47268 | 9552 ft | 263 kts | 301° |
| 2026-05-07 18:10 | 20.60382 | -103.48629 | 9701 ft | 286 kts | 335° |
| 2026-05-07 18:10 | 20.62387 | -103.48986 | 9958 ft | 306 kts | 5° |
| 2026-05-07 18:11 | 20.64433 | -103.48166 | 10072 ft | 328 kts | 36° |
| 2026-05-07 18:11 | 20.65525 | -103.47018 | 10154 ft | 341 kts | 55° |
| 2026-05-07 18:11 | 20.66468 | -103.43782 | 10534 ft | 351 kts | 94° |
| 2026-05-07 18:11 | 20.65895 | -103.41264 | 11060 ft | 350 kts | 113° |
| 2026-05-07 18:12 | 20.64993 | -103.38839 | 11633 ft | 352 kts | 113° |
| 2026-05-07 18:12 | 20.64086 | -103.36411 | 12250 ft | 352 kts | 113° |
| 2026-05-07 18:12 | 20.63176 | -103.33981 | 12866 ft | 353 kts | 114° |
| 2026-05-07 18:12 | 20.62451 | -103.31476 | 13421 ft | 357 kts | 99° |
| 2026-05-07 18:13 | 20.62433 | -103.28811 | 13956 ft | 361 kts | 90° |
| 2026-05-07 18:13 | 20.62448 | -103.26139 | 14440 ft | 361 kts | 94° |
| 2026-05-07 18:13 | 20.62355 | -103.23451 | 14893 ft | 363 kts | 95° |
| 2026-05-07 18:13 | 20.62256 | -103.20781 | 15317 ft | 367 kts | 91° |
| 2026-05-07 18:14 | 20.62575 | -103.18061 | 15716 ft | 374 kts | 78° |
| 2026-05-07 18:14 | 20.63509 | -103.15444 | 16119 ft | 382 kts | 64° |
| 2026-05-07 18:14 | 20.65031 | -103.13095 | 16476 ft | 389 kts | 51° |
| 2026-05-07 18:14 | 20.66764 | -103.10860 | 16759 ft | 392 kts | 52° |
| 2026-05-07 18:15 | 20.68500 | -103.08591 | 17172 ft | 396 kts | 52° |
| 2026-05-07 18:15 | 20.70239 | -103.06291 | 17602 ft | 399 kts | 52° |
| 2026-05-07 18:15 | 20.71985 | -103.03970 | 18039 ft | 403 kts | 52° |
| 2026-05-07 18:15 | 20.73745 | -103.01627 | 18418 ft | 406 kts | 52° |
| 2026-05-07 18:16 | 20.75522 | -102.99262 | 18786 ft | 409 kts | 52° |
| 2026-05-07 18:16 | 20.77310 | -102.96883 | 19162 ft | 412 kts | 52° |
| 2026-05-07 18:16 | 20.79108 | -102.94492 | 19552 ft | 414 kts | 52° |
| 2026-05-07 18:16 | 20.80922 | -102.92085 | 19937 ft | 417 kts | 52° |
| 2026-05-07 18:17 | 20.82745 | -102.89664 | 20319 ft | 419 kts | 52° |
| 2026-05-07 18:17 | 20.84579 | -102.87227 | 20701 ft | 422 kts | 52° |
| 2026-05-07 18:17 | 20.86402 | -102.84804 | 21072 ft | 425 kts | 53° |
| 2026-05-07 18:17 | 20.88258 | -102.82335 | 21440 ft | 428 kts | 53° |
| 2026-05-07 18:18 | 20.90126 | -102.79850 | 21822 ft | 430 kts | 53° |
| 2026-05-07 18:18 | 20.92003 | -102.77348 | 22189 ft | 433 kts | 53° |
| 2026-05-07 18:18 | 20.93891 | -102.74833 | 22553 ft | 435 kts | 53° |
| 2026-05-07 18:18 | 20.95793 | -102.72300 | 22890 ft | 437 kts | 53° |
| 2026-05-07 18:19 | 20.97704 | -102.69756 | 23235 ft | 440 kts | 53° |